createdAt,value
2023-02-22T00:00:45.608Z,10.05
2023-02-22T00:03:17.892Z,10.06
2023-02-22T00:05:46.616Z,10.07
2023-02-22T00:08:14.650Z,10.05
2023-02-22T00:10:40.825Z,10.04
2023-02-22T00:13:09.792Z,10.02
2023-02-22T00:15:36.392Z,10.02
2023-02-22T00:18:04.349Z,10.02
2023-02-22T00:20:30.456Z,10.03
2023-02-22T00:22:56.562Z,10.03
2023-02-22T00:25:24.352Z,10.01
2023-02-22T00:27:52.264Z,9.97
2023-02-22T00:30:26.141Z,9.90
2023-02-22T00:33:01.185Z,9.88
2023-02-22T00:35:29.842Z,9.86
2023-02-22T00:38:01.488Z,9.86
2023-02-22T00:40:30.851Z,9.87
2023-02-22T00:42:58.464Z,9.90
2023-02-22T00:45:26.486Z,9.93
2023-02-22T00:47:53.972Z,9.93
2023-02-22T00:50:21.053Z,9.96
2023-02-22T00:52:48.045Z,9.95
2023-02-22T00:55:25.861Z,9.91
2023-02-22T00:57:52.820Z,9.89
2023-02-22T01:00:32.804Z,9.90
2023-02-22T01:02:59.464Z,9.88
2023-02-22T01:05:28.896Z,9.87
2023-02-22T01:07:56.617Z,9.84
2023-02-22T01:10:24.897Z,9.80
2023-02-22T01:12:52.132Z,9.77
2023-02-22T01:15:23.388Z,9.78
2023-02-22T01:17:52.918Z,9.76
2023-02-22T01:20:22.148Z,9.73
2023-02-22T01:22:50.257Z,9.68
2023-02-22T01:25:19.274Z,9.62
2023-02-22T01:27:45.501Z,9.55
2023-02-22T01:30:14.422Z,9.51
2023-02-22T01:32:42.461Z,9.46
2023-02-22T01:35:13.117Z,9.40
2023-02-22T01:37:40.442Z,9.34
2023-02-22T01:40:09.483Z,9.32
2023-02-22T01:42:36.482Z,9.29
2023-02-22T01:45:30.371Z,9.24
2023-02-22T01:48:01.117Z,9.22
2023-02-22T01:50:28.561Z,9.19
2023-02-22T01:52:55.260Z,9.13
2023-02-22T01:55:21.683Z,9.10
2023-02-22T01:57:48.944Z,9.07
2023-02-22T02:00:20.496Z,9.03
2023-02-22T02:02:52.130Z,9.00
2023-02-22T02:05:24.138Z,9.01
2023-02-22T02:07:50.377Z,9.00
2023-02-22T02:10:20.826Z,8.94
2023-02-22T02:12:49.936Z,8.89
2023-02-22T02:15:34.035Z,8.84
2023-02-22T02:18:04.171Z,8.78
2023-02-22T02:20:30.260Z,8.75
2023-02-22T02:23:00.261Z,8.71
2023-02-22T02:25:47.647Z,8.71
2023-02-22T02:28:38.768Z,8.70
2023-02-22T02:31:31.434Z,8.63
2023-02-22T02:34:21.324Z,8.54
2023-02-22T02:36:59.071Z,8.46
2023-02-22T02:39:40.213Z,8.47
2023-02-22T02:42:11.971Z,8.46
2023-02-22T02:44:47.109Z,8.46
2023-02-22T02:47:23.320Z,8.43
2023-02-22T02:50:04.088Z,8.39
2023-02-22T02:52:33.712Z,8.38
2023-02-22T02:55:01.824Z,8.37
2023-02-22T02:57:27.963Z,8.32
2023-02-22T02:59:54.020Z,8.28
2023-02-22T03:02:35.710Z,8.25
2023-02-22T03:05:13.742Z,8.22
2023-02-22T03:07:54.849Z,8.17
2023-02-22T03:10:41.879Z,8.15
2023-02-22T03:13:38.811Z,8.13
2023-02-22T03:16:11.491Z,8.07
2023-02-22T03:19:04.109Z,8.07
2023-02-22T03:21:32.959Z,8.06
2023-02-22T03:24:13.762Z,8.02
2023-02-22T03:26:53.447Z,8.01
2023-02-22T03:29:23.263Z,7.98
2023-02-22T03:32:00.588Z,7.97
2023-02-22T03:34:40.951Z,7.98
2023-02-22T03:37:26.305Z,7.99
2023-02-22T03:39:54.959Z,7.91
2023-02-22T03:42:25.666Z,7.86
2023-02-22T03:44:54.521Z,7.85
2023-02-22T03:47:27.990Z,7.82
2023-02-22T03:50:06.253Z,7.81
2023-02-22T03:52:34.966Z,7.78
2023-02-22T03:55:03.967Z,7.75
2023-02-22T03:57:34.856Z,7.66
2023-02-22T04:00:06.717Z,7.59
2023-02-22T04:02:42.121Z,7.61
2023-02-22T04:05:10.207Z,7.62
2023-02-22T04:07:36.445Z,7.63
2023-02-22T04:10:03.208Z,7.63
2023-02-22T04:12:30.201Z,7.64
2023-02-22T04:15:00.185Z,7.60
2023-02-22T04:17:27.032Z,7.58
2023-02-22T04:19:53.416Z,7.57
2023-02-22T04:22:21.508Z,7.57
2023-02-22T04:24:48.421Z,7.57
2023-02-22T04:27:16.464Z,7.60
2023-02-22T04:29:42.546Z,7.65
2023-02-22T04:32:09.559Z,7.67
2023-02-22T04:34:36.049Z,7.68
2023-02-22T04:37:02.977Z,7.67
2023-02-22T04:39:29.100Z,7.66
2023-02-22T04:41:55.589Z,7.65
2023-02-22T04:44:21.676Z,7.67
2023-02-22T04:46:47.909Z,7.67
2023-02-22T04:49:16.004Z,7.66
2023-02-22T04:51:43.369Z,7.65
2023-02-22T04:54:12.990Z,7.63
2023-02-22T04:56:44.082Z,7.59
2023-02-22T04:59:10.626Z,7.53
2023-02-22T05:01:38.669Z,7.49
2023-02-22T05:04:06.991Z,7.45
2023-02-22T05:06:33.537Z,7.41
2023-02-22T05:08:59.729Z,7.41
2023-02-22T05:11:25.865Z,7.43
2023-02-22T05:13:52.112Z,7.40
2023-02-22T05:16:18.776Z,7.33
2023-02-22T05:18:44.980Z,7.32
2023-02-22T05:21:12.994Z,7.33
2023-02-22T05:23:39.496Z,7.33
2023-02-22T05:26:05.935Z,7.34
2023-02-22T05:28:32.453Z,7.33
2023-02-22T05:30:58.591Z,7.21
2023-02-22T05:33:24.651Z,7.14
2023-02-22T05:35:50.797Z,7.21
2023-02-22T05:38:17.027Z,7.37
2023-02-22T05:40:43.188Z,7.55
2023-02-22T05:43:09.744Z,7.91
2023-02-22T05:45:36.069Z,8.46
2023-02-22T05:48:02.531Z,9.07
2023-02-22T05:50:28.987Z,9.30
2023-02-22T05:52:55.100Z,9.67
2023-02-22T05:55:23.347Z,10.10
2023-02-22T05:57:50.902Z,10.42
2023-02-22T06:00:26.001Z,10.64
2023-02-22T06:02:56.695Z,10.84
2023-02-22T06:05:22.935Z,11.08
2023-02-22T06:07:49.135Z,11.50
2023-02-22T06:10:15.534Z,12.24
2023-02-22T06:12:41.673Z,13.17
2023-02-22T06:15:08.088Z,13.83
2023-02-22T06:17:34.228Z,13.96
2023-02-22T06:20:00.334Z,13.86
2023-02-22T06:22:26.598Z,13.61
2023-02-22T06:24:54.938Z,13.30
2023-02-22T06:27:21.265Z,13.84
2023-02-22T06:29:47.369Z,14.79
2023-02-22T06:32:13.778Z,15.67
2023-02-22T06:34:43.281Z,16.41
2023-02-22T06:37:09.422Z,17.20
2023-02-22T06:39:35.633Z,17.99
2023-02-22T06:42:01.891Z,18.98
2023-02-22T06:44:28.029Z,19.84
2023-02-22T06:46:54.141Z,20.79
2023-02-22T06:49:20.248Z,21.73
2023-02-22T06:51:47.000Z,22.60
2023-02-22T06:54:13.982Z,23.37
2023-02-22T06:56:40.142Z,24.10
2023-02-22T06:59:06.304Z,24.88
2023-02-22T07:01:32.449Z,25.77
2023-02-22T07:03:58.588Z,26.89
2023-02-22T07:06:24.735Z,27.88
2023-02-22T07:08:50.925Z,28.63
2023-02-22T07:11:17.479Z,29.42
2023-02-22T07:13:43.800Z,30.09
2023-02-22T07:16:10.420Z,30.72
2023-02-22T07:18:36.577Z,31.32
2023-02-22T07:21:02.966Z,31.94
2023-02-22T07:23:29.033Z,32.54
2023-02-22T07:25:55.500Z,33.10
2023-02-22T07:28:21.728Z,33.63
2023-02-22T07:30:47.998Z,34.09
2023-02-22T07:33:14.180Z,34.44
2023-02-22T07:35:48.029Z,34.75
2023-02-22T07:38:16.558Z,35.04
2023-02-22T07:40:43.155Z,35.27
2023-02-22T07:43:18.066Z,35.42
2023-02-22T07:45:45.625Z,35.44
2023-02-22T07:48:12.958Z,35.71
2023-02-22T07:50:39.481Z,36.06
2023-02-22T07:53:10.424Z,36.31
2023-02-22T07:55:40.485Z,36.66
2023-02-22T07:58:08.337Z,37.14
2023-02-22T08:00:39.219Z,37.61
2023-02-22T08:03:08.500Z,37.89
2023-02-22T08:05:36.658Z,37.91
2023-02-22T08:08:03.804Z,38.14
2023-02-22T08:10:30.321Z,38.50
2023-02-22T08:12:56.997Z,38.87
2023-02-22T08:15:31.286Z,39.26
2023-02-22T08:17:58.798Z,39.64
2023-02-22T08:20:25.338Z,39.81
2023-02-22T08:22:51.916Z,39.66
2023-02-22T08:25:20.630Z,39.47
2023-02-22T08:27:47.723Z,38.84
2023-02-22T08:30:22.019Z,37.91
2023-02-22T08:32:49.664Z,36.73
2023-02-22T08:35:17.421Z,35.66
2023-02-22T08:37:50.215Z,34.70
2023-02-22T08:40:20.731Z,33.84
2023-02-22T08:42:47.185Z,32.98
2023-02-22T08:45:13.787Z,32.23
2023-02-22T08:47:40.267Z,31.64
2023-02-22T08:50:07.956Z,31.20
2023-02-22T08:52:34.529Z,30.85
2023-02-22T08:55:01.268Z,30.55
2023-02-22T08:57:27.414Z,30.21
2023-02-22T08:59:53.678Z,29.96
2023-02-22T09:02:21.480Z,29.74
2023-02-22T09:04:48.528Z,29.56
2023-02-22T09:07:15.265Z,29.40
2023-02-22T09:09:44.708Z,29.22
2023-02-22T09:12:11.262Z,28.99
2023-02-22T09:14:37.399Z,28.75
2023-02-22T09:17:05.850Z,28.52
2023-02-22T09:19:32.053Z,28.38
2023-02-22T09:21:59.570Z,28.23
2023-02-22T09:24:26.416Z,28.01
2023-02-22T09:26:55.754Z,27.81
2023-02-22T09:29:24.398Z,27.70
2023-02-22T09:31:53.185Z,27.60
2023-02-22T09:34:22.111Z,27.36
2023-02-22T09:36:49.597Z,27.06
2023-02-22T09:39:17.355Z,26.94
2023-02-22T09:42:14.526Z,26.83
2023-02-22T09:44:49.301Z,26.61
2023-02-22T09:47:19.279Z,26.48
2023-02-22T09:49:56.819Z,26.30
2023-02-22T09:52:40.809Z,26.22
2023-02-22T09:55:31.201Z,26.18
2023-02-22T09:58:02.235Z,26.09
2023-02-22T10:00:37.252Z,25.97
2023-02-22T10:03:24.185Z,25.83
2023-02-22T10:05:58.799Z,25.69
2023-02-22T10:08:31.158Z,25.56
2023-02-22T10:11:09.730Z,25.39
2023-02-22T10:13:44.569Z,25.29
2023-02-22T10:16:36.377Z,25.24
2023-02-22T10:19:11.633Z,25.03
2023-02-22T10:22:04.914Z,24.86
2023-02-22T10:25:12.180Z,24.65
2023-02-22T10:28:09.315Z,24.52
2023-02-22T10:30:41.364Z,24.39
2023-02-22T10:33:16.779Z,24.13
2023-02-22T10:35:46.867Z,23.89
2023-02-22T10:38:20.339Z,23.74
2023-02-22T10:40:54.250Z,23.64
2023-02-22T10:43:21.800Z,23.47
2023-02-22T10:45:50.806Z,23.28
2023-02-22T10:48:20.455Z,23.11
2023-02-22T10:50:47.300Z,23.01
2023-02-22T10:53:17.325Z,22.92
2023-02-22T10:56:09.166Z,22.76
2023-02-22T10:58:57.091Z,22.61
2023-02-22T11:01:25.891Z,22.45
2023-02-22T11:04:06.899Z,22.34
2023-02-22T11:06:34.343Z,22.26
2023-02-22T11:09:13.941Z,22.22
2023-02-22T11:11:43.271Z,22.15
2023-02-22T11:14:10.259Z,22.03
2023-02-22T11:16:45.449Z,21.90
2023-02-22T11:19:23.817Z,21.76
2023-02-22T11:21:56.536Z,21.59
2023-02-22T11:24:27.410Z,21.47
2023-02-22T11:27:05.315Z,21.38
2023-02-22T11:29:35.771Z,21.32
2023-02-22T11:32:22.697Z,21.21
2023-02-22T11:35:00.294Z,21.09
2023-02-22T11:37:37.385Z,20.98
2023-02-22T11:40:21.529Z,20.91
2023-02-22T11:43:15.853Z,20.86
2023-02-22T11:46:09.237Z,20.80
2023-02-22T11:48:39.031Z,20.75
2023-02-22T11:51:16.229Z,20.73
2023-02-22T11:54:10.326Z,20.70
2023-02-22T11:56:51.694Z,20.61
2023-02-22T11:59:36.191Z,20.53
2023-02-22T12:02:32.322Z,20.47
2023-02-22T12:05:04.479Z,20.41
2023-02-22T12:07:41.660Z,20.33
2023-02-22T12:10:17.772Z,20.30
2023-02-22T12:13:04.221Z,20.27
2023-02-22T12:15:47.492Z,20.20
2023-02-22T12:18:38.348Z,20.16
2023-02-22T12:21:16.099Z,20.08
2023-02-22T12:24:15.833Z,20.05
2023-02-22T12:26:50.122Z,20.06
2023-02-22T12:29:40.526Z,20.05
2023-02-22T12:32:34.272Z,20.02
2023-02-22T12:35:16.375Z,19.94
2023-02-22T12:37:44.930Z,19.87
2023-02-22T12:40:38.993Z,19.85
2023-02-22T12:43:10.273Z,19.84
2023-02-22T12:45:43.780Z,19.79
2023-02-22T12:48:17.699Z,19.75
2023-02-22T12:50:47.660Z,19.66
2023-02-22T12:53:25.120Z,19.60
2023-02-22T12:56:03.736Z,19.61
2023-02-22T12:58:39.323Z,19.63
2023-02-22T13:01:21.341Z,19.59
2023-02-22T13:03:50.000Z,19.55
2023-02-22T13:06:34.572Z,19.50
2023-02-22T13:09:15.595Z,19.49
2023-02-22T13:11:51.925Z,19.48
2023-02-22T13:14:31.082Z,19.43
2023-02-22T13:17:03.572Z,19.36
2023-02-22T13:20:05.727Z,19.34
2023-02-22T13:22:47.430Z,19.30
2023-02-22T13:25:23.552Z,19.27
2023-02-22T13:27:59.586Z,19.24
2023-02-22T13:30:36.540Z,19.21
2023-02-22T13:33:31.242Z,19.20
2023-02-22T13:36:20.495Z,19.18
2023-02-22T13:39:05.637Z,19.13
2023-02-22T13:41:41.022Z,19.11
2023-02-22T13:44:16.207Z,19.09
2023-02-22T13:47:06.462Z,19.06
2023-02-22T13:49:35.284Z,19.08
2023-02-22T13:52:11.708Z,19.07
2023-02-22T13:54:45.664Z,19.07
2023-02-22T13:57:24.682Z,19.06
2023-02-22T14:00:15.378Z,19.04
2023-02-22T14:03:14.939Z,18.98
2023-02-22T14:05:41.761Z,18.94
2023-02-22T14:08:28.340Z,18.95
2023-02-22T14:11:01.212Z,18.95
2023-02-22T14:13:29.145Z,18.92
2023-02-22T14:16:01.806Z,18.91
2023-02-22T14:18:42.270Z,18.92
2023-02-22T14:21:16.301Z,18.87
2023-02-22T14:23:50.927Z,18.82
2023-02-22T14:26:26.191Z,18.78
2023-02-22T14:28:57.557Z,18.70
2023-02-22T14:31:36.841Z,18.69
2023-02-22T14:34:20.858Z,18.67
2023-02-22T14:36:55.046Z,18.64
2023-02-22T14:39:33.165Z,18.61
2023-02-22T14:42:10.007Z,18.59
2023-02-22T14:45:16.489Z,18.57
2023-02-22T14:47:59.820Z,18.53
2023-02-22T14:51:05.929Z,18.50
2023-02-22T14:53:47.545Z,18.47
2023-02-22T14:57:11.391Z,18.43
2023-02-22T14:59:58.804Z,18.39
2023-02-22T15:02:25.421Z,18.36
2023-02-22T15:04:57.415Z,18.30
2023-02-22T15:07:26.889Z,18.26
2023-02-22T15:10:17.207Z,18.22
2023-02-22T15:13:07.960Z,18.21
2023-02-22T15:15:44.859Z,18.16
2023-02-22T15:18:26.462Z,18.09
2023-02-22T15:20:57.587Z,18.05
2023-02-22T15:23:29.679Z,18.03
2023-02-22T15:25:56.368Z,18.01
2023-02-22T15:28:26.889Z,17.99
2023-02-22T15:31:17.159Z,17.95
2023-02-22T15:33:43.601Z,17.88
2023-02-22T15:36:16.277Z,17.79
2023-02-22T15:38:48.775Z,17.66
2023-02-22T15:41:28.437Z,17.57
2023-02-22T15:44:17.835Z,17.52
2023-02-22T15:46:49.543Z,17.50
2023-02-22T15:49:15.578Z,17.46
2023-02-22T15:51:48.463Z,17.44
2023-02-22T15:54:26.575Z,17.39
2023-02-22T15:56:56.839Z,17.33
2023-02-22T15:59:29.764Z,17.27
2023-02-22T16:01:57.917Z,17.19
2023-02-22T16:04:29.196Z,17.13
2023-02-22T16:07:07.410Z,17.09
2023-02-22T16:09:33.900Z,17.08
2023-02-22T16:12:23.989Z,17.06
2023-02-22T16:14:51.807Z,17.00
2023-02-22T16:17:24.132Z,16.95
2023-02-22T16:19:52.042Z,16.88
2023-02-22T16:22:39.479Z,16.82
2023-02-22T16:25:17.477Z,16.78
2023-02-22T16:28:22.274Z,16.75
2023-02-22T16:30:57.047Z,16.67
2023-02-22T16:33:23.330Z,16.61
2023-02-22T16:35:52.435Z,16.58
2023-02-22T16:38:19.145Z,16.55
2023-02-22T16:40:49.857Z,16.52
2023-02-22T16:43:23.870Z,16.48
2023-02-22T16:45:52.256Z,16.44
2023-02-22T16:48:24.175Z,16.38
2023-02-22T16:50:53.262Z,16.33
2023-02-22T16:53:22.061Z,16.27
2023-02-22T16:55:53.101Z,16.22
2023-02-22T16:58:19.303Z,16.17
2023-02-22T17:00:45.567Z,16.12
2023-02-22T17:03:15.954Z,16.08
2023-02-22T17:05:43.283Z,16.03
2023-02-22T17:08:09.782Z,15.97
2023-02-22T17:10:36.031Z,15.89
2023-02-22T17:13:22.187Z,15.81
2023-02-22T17:15:49.989Z,15.74
2023-02-22T17:18:22.085Z,15.68
2023-02-22T17:20:50.115Z,15.62
2023-02-22T17:23:16.569Z,15.58
2023-02-22T17:25:45.477Z,15.54
2023-02-22T17:28:12.384Z,15.49
2023-02-22T17:30:38.795Z,15.45
2023-02-22T17:33:07.610Z,15.40
2023-02-22T17:35:37.215Z,15.35
2023-02-22T17:38:05.482Z,15.31
2023-02-22T17:40:34.214Z,15.27
2023-02-22T17:43:01.214Z,15.21
2023-02-22T17:45:27.982Z,15.18
2023-02-22T17:47:54.543Z,15.15
2023-02-22T17:50:21.926Z,15.11
2023-02-22T17:52:51.147Z,15.06
2023-02-22T17:55:20.254Z,15.00
2023-02-22T17:57:51.644Z,14.97
2023-02-22T18:00:32.351Z,14.95
2023-02-22T18:03:05.230Z,14.91
2023-02-22T18:05:34.842Z,14.87
2023-02-22T18:08:01.220Z,14.81
2023-02-22T18:10:27.441Z,14.77
2023-02-22T18:12:54.612Z,14.73
2023-02-22T18:15:21.090Z,14.65
2023-02-22T18:17:47.863Z,14.60
2023-02-22T18:20:19.673Z,14.55
2023-02-22T18:22:46.722Z,14.51
2023-02-22T18:25:15.110Z,14.47
2023-02-22T18:27:48.114Z,14.45
2023-02-22T18:30:17.684Z,14.43
2023-02-22T18:32:45.499Z,14.39
2023-02-22T18:35:12.603Z,14.37
2023-02-22T18:37:39.325Z,14.33
2023-02-22T18:40:09.946Z,14.28
2023-02-22T18:42:38.480Z,14.21
2023-02-22T18:45:06.712Z,14.15
2023-02-22T18:47:42.121Z,14.12
2023-02-22T18:50:10.296Z,14.08
2023-02-22T18:52:48.949Z,14.05
2023-02-22T18:55:19.343Z,14.00
2023-02-22T18:57:46.490Z,13.94
2023-02-22T19:00:18.552Z,13.91
2023-02-22T19:02:45.094Z,13.85
2023-02-22T19:05:12.660Z,13.81
2023-02-22T19:07:39.202Z,13.76
2023-02-22T19:10:06.548Z,13.73
2023-02-22T19:12:33.223Z,13.68
2023-02-22T19:15:00.097Z,13.65
2023-02-22T19:25:37.005Z,13.54
2023-02-22T19:28:03.715Z,13.52
2023-02-22T19:30:31.757Z,13.49
2023-02-22T19:32:57.930Z,13.43
2023-02-22T19:35:26.923Z,13.37
2023-02-22T19:37:56.053Z,13.30
2023-02-22T19:40:22.611Z,13.24
2023-02-22T19:42:53.981Z,13.20
2023-02-22T19:45:21.145Z,13.15
2023-02-22T19:47:48.104Z,13.09
2023-02-22T19:50:18.262Z,13.03
2023-02-22T19:52:44.844Z,13.00
2023-02-22T19:55:13.909Z,12.97
2023-02-22T19:57:42.615Z,12.94
2023-02-22T20:00:10.855Z,12.90
2023-02-22T20:02:41.315Z,12.82
2023-02-22T20:05:12.708Z,12.75
2023-02-22T20:07:39.016Z,12.70
2023-02-22T20:10:06.566Z,12.62
2023-02-22T20:12:32.873Z,12.55
2023-02-22T20:14:59.701Z,12.47
2023-02-22T20:17:28.732Z,12.44
2023-02-22T20:19:55.010Z,12.42
2023-02-22T20:22:21.856Z,12.39
2023-02-22T20:24:49.154Z,12.38
2023-02-22T20:27:15.946Z,12.35
2023-02-22T20:29:42.199Z,12.27
2023-02-22T20:32:14.275Z,12.20
2023-02-22T20:34:45.230Z,12.11
2023-02-22T20:37:11.634Z,12.06
2023-02-22T20:39:37.974Z,12.03
2023-02-22T20:42:06.176Z,11.96
2023-02-22T20:44:32.804Z,11.89
2023-02-22T20:46:59.163Z,11.85
2023-02-22T20:49:26.671Z,11.81
2023-02-22T20:51:53.166Z,11.80
2023-02-22T20:54:20.825Z,11.80
2023-02-22T20:56:47.719Z,11.78
2023-02-22T20:59:16.388Z,11.75
2023-02-22T21:01:43.149Z,11.74
2023-02-22T21:04:10.691Z,11.72
2023-02-22T21:06:38.840Z,11.69
2023-02-22T21:09:09.680Z,11.67
2023-02-22T21:11:35.931Z,11.66
2023-02-22T21:14:02.826Z,11.65
2023-02-22T21:16:31.520Z,11.64
2023-02-22T21:19:00.611Z,11.60
2023-02-22T21:21:28.159Z,11.54
2023-02-22T21:23:56.605Z,11.45
2023-02-22T21:26:29.025Z,11.40
2023-02-22T21:28:58.028Z,11.31
2023-02-22T21:31:25.184Z,11.23
2023-02-22T21:33:53.614Z,11.16
2023-02-22T21:36:24.330Z,11.13
2023-02-22T21:38:55.042Z,11.12
2023-02-22T21:41:23.761Z,11.12
2023-02-22T21:43:50.922Z,11.05
2023-02-22T21:46:17.565Z,11.01
2023-02-22T21:48:47.784Z,10.97
2023-02-22T21:51:20.906Z,10.95
2023-02-22T21:53:52.519Z,10.96
2023-02-22T21:56:23.673Z,10.97
2023-02-22T21:58:58.604Z,10.93
2023-02-22T22:01:29.895Z,10.90
2023-02-22T22:03:59.134Z,10.89
2023-02-22T22:06:30.128Z,10.87
2023-02-22T22:08:59.132Z,10.84
2023-02-22T22:11:25.433Z,10.84
2023-02-22T22:13:56.966Z,10.83
2023-02-22T22:16:25.098Z,10.77
2023-02-22T22:18:51.463Z,10.77
2023-02-22T22:21:22.172Z,10.77
2023-02-22T22:23:50.066Z,10.75
2023-02-22T22:26:20.377Z,10.73
2023-02-22T22:28:49.370Z,10.71
2023-02-22T22:31:18.901Z,10.66
2023-02-22T22:33:46.340Z,10.61
2023-02-22T22:36:15.184Z,10.58
2023-02-22T22:38:42.571Z,10.56
2023-02-22T22:41:12.662Z,10.51
2023-02-22T22:43:41.037Z,10.46
2023-02-22T22:46:08.009Z,10.41
2023-02-22T22:48:38.452Z,10.34
2023-02-22T22:51:09.204Z,10.30
2023-02-22T22:53:41.399Z,10.24
2023-02-22T22:56:13.685Z,10.11
2023-02-22T22:58:43.297Z,10.04
2023-02-22T23:01:17.301Z,10.03
2023-02-22T23:03:47.981Z,9.96
2023-02-22T23:06:15.891Z,9.90
2023-02-22T23:08:45.118Z,9.90
2023-02-22T23:11:12.183Z,9.87
2023-02-22T23:13:39.170Z,9.83
2023-02-22T23:16:12.390Z,9.79
2023-02-22T23:18:42.519Z,9.74
2023-02-22T23:21:10.053Z,9.66
2023-02-22T23:23:36.716Z,9.63
2023-02-22T23:26:10.881Z,9.63
2023-02-22T23:28:39.462Z,9.59
2023-02-22T23:31:10.436Z,9.54
2023-02-22T23:33:37.733Z,9.51
2023-02-22T23:36:07.539Z,9.50
2023-02-22T23:38:34.290Z,9.47
2023-02-22T23:41:02.299Z,9.46
2023-02-22T23:43:31.900Z,9.41
2023-02-22T23:46:03.267Z,9.25
2023-02-22T23:48:29.516Z,9.20
2023-02-22T23:50:58.595Z,9.23
2023-02-22T23:53:25.907Z,9.15
2023-02-22T23:55:52.001Z,9.11
2023-02-22T23:58:22.122Z,9.10
